createdAt,value
2019-05-12T00:00:18.364Z,79.11
2019-05-12T00:02:50.184Z,78.93
2019-05-12T00:05:22.047Z,78.56
2019-05-12T00:07:53.757Z,78.76
2019-05-12T00:10:28.059Z,78.84
2019-05-12T00:12:59.203Z,78.67
2019-05-12T00:15:30.853Z,78.82
2019-05-12T00:18:03.016Z,78.90
2019-05-12T00:20:34.565Z,78.87
2019-05-12T00:23:23.290Z,78.91
2019-05-12T00:25:41.567Z,78.98
2019-05-12T00:28:13.702Z,78.72
2019-05-12T00:30:48.761Z,78.55
2019-05-12T00:33:20.525Z,78.43
2019-05-12T00:35:52.114Z,78.24
2019-05-12T00:38:23.696Z,78.34
2019-05-12T00:40:58.137Z,78.66
2019-05-12T00:43:29.127Z,78.70
2019-05-12T00:46:00.685Z,78.45
2019-05-12T00:48:32.361Z,78.31
2019-05-12T00:51:04.222Z,78.68
2019-05-12T00:53:42.716Z,78.85
2019-05-12T00:56:09.910Z,78.50
2019-05-12T00:58:41.720Z,78.48
2019-05-12T01:01:13.305Z,78.26
2019-05-12T01:03:45.086Z,78.71
2019-05-12T01:06:17.843Z,79.14
2019-05-12T01:08:49.614Z,78.96
2019-05-12T01:11:21.585Z,79.14
2019-05-12T01:13:53.528Z,79.29
2019-05-12T01:16:25.433Z,79.57
2019-05-12T01:18:58.718Z,79.39
2019-05-12T01:21:30.347Z,79.43
2019-05-12T01:24:03.451Z,79.24
2019-05-12T01:26:35.505Z,79.33
2019-05-12T01:29:08.390Z,79.33
2019-05-12T01:31:41.965Z,79.18
2019-05-12T01:34:13.625Z,78.91
2019-05-12T01:36:45.139Z,78.67
2019-05-12T01:39:18.730Z,78.71
2019-05-12T01:41:50.430Z,78.89
2019-05-12T01:44:22.118Z,78.69
2019-05-12T01:46:53.879Z,78.68
2019-05-12T01:49:25.815Z,79.04
2019-05-12T01:51:58.216Z,79.32
2019-05-12T01:54:30.036Z,79.42
2019-05-12T01:57:01.620Z,79.54
2019-05-12T01:59:33.588Z,79.46
2019-05-12T02:02:05.759Z,79.17
2019-05-12T02:04:45.157Z,78.95
2019-05-12T02:07:18.529Z,79.11
2019-05-12T02:09:50.254Z,79.25
2019-05-12T02:12:21.762Z,79.30
2019-05-12T02:14:53.966Z,78.98
2019-05-12T02:17:28.338Z,78.84
2019-05-12T02:19:59.438Z,78.46
2019-05-12T02:22:31.150Z,78.45
2019-05-12T02:25:03.213Z,78.75
2019-05-12T02:27:35.126Z,79.20
2019-05-12T02:30:10.221Z,79.56
2019-05-12T02:32:49.509Z,79.44
2019-05-12T02:35:16.300Z,78.99
2019-05-12T02:37:47.951Z,79.02
2019-05-12T02:40:24.884Z,79.33
2019-05-12T02:42:58.288Z,79.04
2019-05-12T02:45:30.427Z,78.98
2019-05-12T02:48:05.072Z,79.20
2019-05-12T02:50:37.891Z,79.36
2019-05-12T02:53:09.941Z,79.48
2019-05-12T02:55:45.070Z,80.00
2019-05-12T02:58:17.258Z,80.21
2019-05-12T03:00:49.066Z,80.64
2019-05-12T03:03:25.067Z,80.88
2019-05-12T03:05:58.896Z,80.79
2019-05-12T03:08:34.912Z,80.61
2019-05-12T03:11:06.993Z,80.95
2019-05-12T03:13:39.879Z,81.21
2019-05-12T03:16:14.914Z,80.70
2019-05-12T03:18:45.850Z,80.50
2019-05-12T03:21:17.963Z,80.45
2019-05-12T03:23:50.003Z,80.46
2019-05-12T03:26:24.683Z,80.75
2019-05-12T03:28:55.750Z,80.59
2019-05-12T03:31:31.218Z,80.48
2019-05-12T03:34:08.048Z,80.26
2019-05-12T03:36:41.122Z,80.39
2019-05-12T03:39:09.615Z,80.66
2019-05-12T03:41:44.343Z,80.59
2019-05-12T03:44:15.408Z,80.58
2019-05-12T03:46:47.093Z,80.79
2019-05-12T03:49:18.959Z,80.87
2019-05-12T03:51:54.224Z,81.11
2019-05-12T03:54:24.744Z,81.18
2019-05-12T03:56:56.457Z,81.49
2019-05-12T03:59:28.306Z,81.92
2019-05-12T04:02:00.129Z,82.15
2019-05-12T04:04:34.749Z,82.54
2019-05-12T04:07:05.644Z,82.71
2019-05-12T04:09:37.277Z,82.21
2019-05-12T04:12:08.885Z,82.11
2019-05-12T04:14:40.788Z,82.43
2019-05-12T04:17:14.974Z,82.66
2019-05-12T04:19:45.636Z,82.96
2019-05-12T04:22:18.009Z,82.77
2019-05-12T04:24:49.758Z,83.20
2019-05-12T04:27:25.082Z,83.25
2019-05-12T04:29:57.378Z,83.01
2019-05-12T04:32:29.448Z,82.71
2019-05-12T04:35:04.540Z,82.19
2019-05-12T04:37:35.470Z,82.15
2019-05-12T04:40:07.877Z,82.08
2019-05-12T04:42:40.087Z,81.53
2019-05-12T04:45:15.551Z,81.24
2019-05-12T04:47:46.229Z,80.99
2019-05-12T04:50:18.332Z,80.87
2019-05-12T04:52:50.836Z,80.80
2019-05-12T04:55:25.622Z,80.51
2019-05-12T04:57:56.277Z,80.52
2019-05-12T05:00:27.833Z,80.77
2019-05-12T05:02:59.856Z,80.58
2019-05-12T05:05:35.030Z,80.17
2019-05-12T05:08:05.935Z,79.23
2019-05-12T05:10:37.481Z,78.96
2019-05-12T05:13:09.362Z,78.57
2019-05-12T05:15:43.976Z,78.75
2019-05-12T05:18:14.529Z,79.09
2019-05-12T05:20:46.066Z,78.74
2019-05-12T05:23:18.025Z,78.52
2019-05-12T05:25:49.865Z,77.32
2019-05-12T05:28:23.518Z,76.84
2019-05-12T05:30:55.026Z,76.75
2019-05-12T05:33:26.955Z,77.18
2019-05-12T05:35:58.917Z,77.02
2019-05-12T05:38:31.029Z,77.19
2019-05-12T05:41:05.860Z,76.65
2019-05-12T05:43:36.285Z,76.13
2019-05-12T05:46:09.591Z,76.17
2019-05-12T05:48:43.940Z,75.81
2019-05-12T05:51:15.734Z,75.45
2019-05-12T05:53:49.788Z,75.19
2019-05-12T05:56:31.659Z,74.79
2019-05-12T05:58:55.216Z,74.88
2019-05-12T06:01:27.888Z,73.92
2019-05-12T06:04:04.309Z,73.70
2019-05-12T06:06:34.160Z,73.78
2019-05-12T06:09:07.273Z,73.29
2019-05-12T06:11:38.913Z,72.43
2019-05-12T06:14:13.085Z,70.38
2019-05-12T06:16:44.266Z,70.79
2019-05-12T06:19:16.426Z,70.57
2019-05-12T06:21:48.291Z,71.08
2019-05-12T06:24:20.421Z,71.05
2019-05-12T06:26:57.774Z,69.54
2019-05-12T06:29:26.856Z,69.38
2019-05-12T06:32:00.155Z,70.28
2019-05-12T06:34:34.177Z,69.64
2019-05-12T06:37:11.907Z,70.73
2019-05-12T06:39:39.389Z,69.81
2019-05-12T06:42:14.161Z,70.31
2019-05-12T06:44:48.968Z,68.76
2019-05-12T06:47:18.506Z,68.31
2019-05-12T06:49:56.401Z,67.81
2019-05-12T06:52:24.229Z,66.80
2019-05-12T06:54:56.834Z,65.25
2019-05-12T06:57:28.977Z,66.12
2019-05-12T07:00:00.823Z,65.82
2019-05-12T07:02:36.658Z,64.98
2019-05-12T07:05:07.288Z,65.09
2019-05-12T07:07:46.009Z,64.62
2019-05-12T07:10:34.326Z,63.97
2019-05-12T07:13:00.782Z,64.15
2019-05-12T07:15:20.636Z,62.16
2019-05-12T07:17:55.752Z,62.17
2019-05-12T07:20:29.312Z,60.60
2019-05-12T07:23:00.974Z,61.94
2019-05-12T07:25:36.300Z,61.80
2019-05-12T07:28:08.017Z,61.01
2019-05-12T07:30:39.841Z,62.33
2019-05-12T07:33:11.628Z,62.12
2019-05-12T07:35:44.508Z,61.97
2019-05-12T07:38:21.508Z,58.94
2019-05-12T07:40:53.573Z,60.21
2019-05-12T07:43:27.729Z,57.55
2019-05-12T07:46:02.552Z,58.92
2019-05-12T07:48:33.502Z,58.03
2019-05-12T07:51:05.386Z,53.86
2019-05-12T07:53:37.022Z,55.39
2019-05-12T07:56:08.589Z,57.55
2019-05-12T07:58:40.900Z,57.45
2019-05-12T08:01:14.605Z,56.56
2019-05-12T08:03:50.853Z,57.45
2019-05-12T08:06:19.628Z,55.80
2019-05-12T08:08:56.588Z,56.19
2019-05-12T08:11:28.841Z,55.33
2019-05-12T08:13:57.987Z,56.14
2019-05-12T08:16:33.697Z,53.91
2019-05-12T08:19:03.996Z,54.35
2019-05-12T08:21:43.462Z,56.46
2019-05-12T08:24:08.826Z,54.32
2019-05-12T08:26:40.641Z,53.48
2019-05-12T08:29:17.028Z,53.43
2019-05-12T08:31:45.970Z,53.25
2019-05-12T08:34:18.381Z,52.89
2019-05-12T08:36:53.264Z,53.28
2019-05-12T08:39:25.943Z,53.79
2019-05-12T08:41:56.379Z,53.91
2019-05-12T08:44:33.849Z,53.17
2019-05-12T08:47:03.762Z,51.25
2019-05-12T08:49:50.118Z,50.36
2019-05-12T08:52:07.737Z,51.14
2019-05-12T08:54:39.653Z,51.71
2019-05-12T08:57:14.388Z,50.41
2019-05-12T08:59:45.849Z,49.44
2019-05-12T09:02:17.437Z,50.62
2019-05-12T09:04:51.537Z,50.37
2019-05-12T09:07:24.283Z,50.25
2019-05-12T09:09:55.755Z,49.38
2019-05-12T09:12:27.123Z,49.65
2019-05-12T09:14:58.959Z,50.72
2019-05-12T09:17:30.633Z,51.04
2019-05-12T09:20:08.136Z,52.33
2019-05-12T09:22:35.578Z,53.04
2019-05-12T09:25:08.617Z,52.24
2019-05-12T09:27:47.975Z,52.53
2019-05-12T09:30:19.844Z,52.31
2019-05-12T09:32:55.491Z,52.19
2019-05-12T09:35:28.583Z,51.75
2019-05-12T09:37:57.983Z,51.46
2019-05-12T09:40:29.686Z,50.61
2019-05-12T09:43:06.240Z,51.78
2019-05-12T09:45:40.214Z,50.78
2019-05-12T09:48:09.548Z,51.15
2019-05-12T09:50:44.200Z,51.37
2019-05-12T09:53:15.399Z,50.70
2019-05-12T09:55:46.871Z,48.35
2019-05-12T09:58:22.914Z,48.61
2019-05-12T10:00:54.312Z,49.25
2019-05-12T10:03:25.387Z,51.54
2019-05-12T10:05:57.037Z,49.68
2019-05-12T10:08:29.323Z,49.73
2019-05-12T10:11:03.800Z,49.39
2019-05-12T10:13:35.483Z,50.61
2019-05-12T10:16:08.798Z,49.27
2019-05-12T10:18:45.354Z,49.74
2019-05-12T10:21:15.543Z,50.39
2019-05-12T10:23:51.445Z,52.68
2019-05-12T10:26:21.070Z,50.39
2019-05-12T10:28:58.065Z,51.46
2019-05-12T10:31:29.733Z,50.52
2019-05-12T10:34:17.099Z,50.76
2019-05-12T10:36:53.877Z,47.90
2019-05-12T10:39:25.826Z,48.13
2019-05-12T10:41:57.493Z,46.13
2019-05-12T10:44:36.206Z,48.47
2019-05-12T10:47:04.694Z,46.55
2019-05-12T10:49:37.181Z,47.56
2019-05-12T10:52:08.841Z,47.25
2019-05-12T10:54:40.697Z,50.60
2019-05-12T10:57:14.154Z,50.93
2019-05-12T10:59:48.626Z,49.29
2019-05-12T11:02:20.537Z,47.89
2019-05-12T11:04:54.164Z,49.20
2019-05-12T11:07:28.196Z,48.01
2019-05-12T11:10:05.600Z,47.31
2019-05-12T11:12:34.035Z,48.50
2019-05-12T11:15:10.254Z,49.72
2019-05-12T11:17:53.426Z,46.78
2019-05-12T11:20:25.367Z,47.68
2019-05-12T11:22:57.371Z,48.84
2019-05-12T11:25:29.349Z,48.53
2019-05-12T11:28:03.435Z,48.77
2019-05-12T11:30:34.812Z,49.54
2019-05-12T11:33:06.449Z,49.92
2019-05-12T11:35:38.199Z,51.45
2019-05-12T11:38:09.856Z,50.32
2019-05-12T11:40:43.562Z,49.89
2019-05-12T11:43:14.623Z,48.27
2019-05-12T11:45:46.442Z,46.25
2019-05-12T11:48:18.061Z,47.30
2019-05-12T11:50:51.381Z,47.35
2019-05-12T11:53:30.320Z,47.46
2019-05-12T11:55:56.683Z,46.81
2019-05-12T11:58:28.891Z,47.66
2019-05-12T12:01:04.761Z,48.18
2019-05-12T12:03:37.442Z,46.94
2019-05-12T12:06:09.309Z,47.11
2019-05-12T12:08:41.102Z,48.59
2019-05-12T12:11:18.871Z,49.81
2019-05-12T12:13:46.121Z,49.74
2019-05-12T12:16:18.101Z,51.65
2019-05-12T12:19:01.248Z,50.58
2019-05-12T12:21:23.721Z,51.67
2019-05-12T12:23:55.496Z,52.71
2019-05-12T12:26:30.205Z,54.26
2019-05-12T12:29:00.572Z,53.24
2019-05-12T12:31:37.341Z,53.13
2019-05-12T12:34:07.427Z,53.25
2019-05-12T12:36:39.538Z,53.74
2019-05-12T12:39:13.159Z,53.71
2019-05-12T12:41:55.336Z,53.21
2019-05-12T12:44:18.235Z,52.54
2019-05-12T12:46:51.298Z,51.16
2019-05-12T12:49:23.465Z,50.10
2019-05-12T12:51:55.848Z,48.79
2019-05-12T12:54:27.290Z,49.19
2019-05-12T12:57:00.017Z,48.77
2019-05-12T12:59:33.395Z,49.30
2019-05-12T13:02:09.049Z,49.29
2019-05-12T13:04:39.553Z,49.19
2019-05-12T13:07:13.757Z,48.18
2019-05-12T13:09:45.047Z,48.69
2019-05-12T13:12:19.480Z,48.70
2019-05-12T13:14:53.162Z,47.88
2019-05-12T13:17:28.974Z,48.40
2019-05-12T13:19:58.757Z,48.41
2019-05-12T13:22:30.496Z,50.45
2019-05-12T13:25:04.401Z,51.37
2019-05-12T13:27:36.909Z,51.01
2019-05-12T13:30:18.548Z,52.77
2019-05-12T13:32:44.233Z,52.63
2019-05-12T13:35:20.029Z,51.23
2019-05-12T13:37:57.847Z,51.51
2019-05-12T13:40:29.773Z,52.45
2019-05-12T13:42:59.154Z,52.09
2019-05-12T13:45:30.853Z,51.88
2019-05-12T13:48:03.869Z,51.71
2019-05-12T13:50:35.967Z,51.31
2019-05-12T13:53:10.399Z,51.42
2019-05-12T13:55:45.485Z,51.18
2019-05-12T13:58:15.065Z,50.73
2019-05-12T14:01:00.613Z,50.65
2019-05-12T14:03:20.486Z,50.89
2019-05-12T14:05:55.063Z,51.37
2019-05-12T14:08:25.887Z,52.39
2019-05-12T14:10:59.710Z,52.05
2019-05-12T14:13:30.562Z,52.90
2019-05-12T14:16:05.741Z,52.75
2019-05-12T14:18:36.291Z,52.90
2019-05-12T14:21:09.198Z,52.49
2019-05-12T14:23:40.638Z,52.77
2019-05-12T14:26:13.826Z,53.07
2019-05-12T14:28:49.476Z,53.12
2019-05-12T14:31:29.492Z,53.88
2019-05-12T14:33:53.941Z,54.91
2019-05-12T14:36:26.452Z,55.64
2019-05-12T14:39:00.316Z,55.56
2019-05-12T14:41:34.092Z,55.13
2019-05-12T14:44:05.438Z,55.32
2019-05-12T14:46:40.079Z,55.37
2019-05-12T14:49:10.717Z,56.76
2019-05-12T14:51:44.357Z,57.59
2019-05-12T14:54:15.948Z,56.57
2019-05-12T14:56:53.669Z,59.72
2019-05-12T14:59:23.757Z,62.86
2019-05-12T15:01:59.184Z,65.15
2019-05-12T15:04:29.941Z,67.10
2019-05-12T15:07:05.891Z,70.77
2019-05-12T15:09:35.614Z,73.26
2019-05-12T15:12:07.692Z,74.42
2019-05-12T15:14:39.130Z,76.06
2019-05-12T15:17:13.653Z,76.48
2019-05-12T15:19:44.934Z,76.00
2019-05-12T15:22:16.567Z,77.96
2019-05-12T15:24:49.371Z,76.28
2019-05-12T15:27:38.040Z,76.86
2019-05-12T15:29:58.339Z,76.33
2019-05-12T15:32:28.701Z,76.21
2019-05-12T15:35:00.391Z,76.27
2019-05-12T15:37:35.003Z,76.83
2019-05-12T15:40:08.752Z,79.38
2019-05-12T15:42:41.560Z,77.90
2019-05-12T15:45:16.570Z,78.56
2019-05-12T15:47:47.939Z,79.66
2019-05-12T15:50:23.585Z,80.71
2019-05-12T15:52:57.196Z,80.90
2019-05-12T15:55:33.353Z,80.40
2019-05-12T15:58:06.032Z,80.83
2019-05-12T16:00:38.520Z,80.37
2019-05-12T16:03:10.480Z,79.67
2019-05-12T16:05:44.475Z,79.90
2019-05-12T16:08:16.254Z,78.83
2019-05-12T16:10:48.163Z,78.15
2019-05-12T16:13:19.643Z,77.96
2019-05-12T16:15:56.015Z,78.21
2019-05-12T16:18:26.712Z,78.61
2019-05-12T16:21:04.155Z,78.64
2019-05-12T16:23:34.116Z,78.57
2019-05-12T16:26:10.301Z,78.63
2019-05-12T16:28:39.574Z,78.84
2019-05-12T16:31:11.169Z,79.07
2019-05-12T16:33:43.657Z,79.57
2019-05-12T16:36:15.496Z,79.70
2019-05-12T16:38:50.152Z,79.99
2019-05-12T16:41:26.230Z,80.13
2019-05-12T16:43:54.837Z,80.82
2019-05-12T16:46:27.092Z,80.93
2019-05-12T16:48:59.211Z,81.20
2019-05-12T16:51:33.151Z,81.10
2019-05-12T16:54:04.371Z,81.19
2019-05-12T16:56:37.343Z,80.78
2019-05-12T16:59:16.835Z,81.55
2019-05-12T17:01:44.035Z,81.13
2019-05-12T17:04:15.678Z,80.94
2019-05-12T17:06:47.450Z,80.77
2019-05-12T17:09:19.511Z,81.02
2019-05-12T17:11:55.459Z,81.22
2019-05-12T17:14:28.599Z,80.93
2019-05-12T17:17:00.214Z,81.02
2019-05-12T17:19:33.948Z,81.18
2019-05-12T17:22:05.155Z,81.20
2019-05-12T17:24:38.247Z,81.53
2019-05-12T17:27:15.865Z,81.61
2019-05-12T17:29:44.968Z,81.68
2019-05-12T17:32:16.809Z,81.52
2019-05-12T17:34:49.040Z,81.33
2019-05-12T17:37:20.612Z,81.49
2019-05-12T17:39:52.396Z,81.28
2019-05-12T17:42:26.852Z,81.34
2019-05-12T17:44:57.807Z,81.10
2019-05-12T17:47:31.881Z,81.31
2019-05-12T17:50:10.242Z,80.97
2019-05-12T17:52:40.247Z,81.32
2019-05-12T17:55:14.563Z,81.12
2019-05-12T17:57:50.463Z,81.33
2019-05-12T18:00:23.498Z,81.16
2019-05-12T18:03:14.169Z,81.18
2019-05-12T18:05:28.480Z,80.78
2019-05-12T18:08:00.461Z,80.72
2019-05-12T18:10:32.500Z,80.80
2019-05-12T18:13:05.448Z,80.61
2019-05-12T18:15:38.037Z,80.92
2019-05-12T18:18:10.185Z,81.02
2019-05-12T18:20:44.543Z,80.83
2019-05-12T18:23:19.903Z,80.72
2019-05-12T18:25:48.784Z,80.89
2019-05-12T18:28:21.551Z,81.12
2019-05-12T18:30:54.045Z,80.83
2019-05-12T18:33:33.668Z,81.11
2019-05-12T18:35:59.610Z,81.46
2019-05-12T18:38:34.672Z,81.28
2019-05-12T18:41:05.156Z,81.38
2019-05-12T18:43:37.245Z,81.39
2019-05-12T18:46:09.405Z,81.71
2019-05-12T18:48:41.281Z,81.58
2019-05-12T18:51:17.005Z,81.83
2019-05-12T18:53:46.319Z,81.64
2019-05-12T18:56:21.710Z,81.59
2019-05-12T18:58:54.343Z,81.83
2019-05-12T19:01:25.807Z,81.86
2019-05-12T19:03:57.744Z,81.69
2019-05-12T19:06:29.607Z,81.64
2019-05-12T19:09:03.999Z,81.75
2019-05-12T19:11:41.627Z,82.14
2019-05-12T19:14:08.418Z,81.69
2019-05-12T19:16:40.725Z,81.43
2019-05-12T19:19:18.337Z,81.32
2019-05-12T19:21:46.750Z,81.48
2019-05-12T19:24:20.137Z,81.78
2019-05-12T19:26:54.181Z,81.70
2019-05-12T19:29:29.882Z,81.86
2019-05-12T19:31:59.272Z,81.77
2019-05-12T19:34:31.846Z,81.70
2019-05-12T19:37:06.386Z,81.64
2019-05-12T19:39:38.135Z,81.52
2019-05-12T19:42:15.981Z,81.46
2019-05-12T19:44:44.085Z,81.33
2019-05-12T19:47:21.362Z,81.46
2019-05-12T19:49:50.667Z,81.53
2019-05-12T19:52:24.374Z,81.81
2019-05-12T19:54:56.365Z,81.94
2019-05-12T19:57:28.100Z,81.67
2019-05-12T20:00:00.118Z,81.39
2019-05-12T20:02:34.092Z,81.44
2019-05-12T20:05:07.278Z,81.18
2019-05-12T20:07:39.425Z,81.43
2019-05-12T20:10:13.905Z,81.35
2019-05-12T20:12:48.934Z,81.28
2019-05-12T20:15:19.755Z,81.46
2019-05-12T20:17:53.546Z,81.18
2019-05-12T20:20:35.229Z,81.43
2019-05-12T20:22:58.913Z,81.21
2019-05-12T20:25:30.903Z,81.37
2019-05-12T20:28:10.832Z,80.97
2019-05-12T20:30:36.508Z,81.09
2019-05-12T20:33:08.285Z,81.27
2019-05-12T20:35:45.129Z,81.15
2019-05-12T20:38:14.917Z,81.40
2019-05-12T20:40:46.948Z,81.09
2019-05-12T20:43:24.118Z,81.11
2019-05-12T20:45:52.516Z,81.07
2019-05-12T20:48:26.487Z,81.41
2019-05-12T20:50:57.736Z,81.78
2019-05-12T20:53:31.836Z,81.67
2019-05-12T20:56:03.781Z,81.67
2019-05-12T20:58:43.105Z,81.83
2019-05-12T21:01:10.232Z,81.65
2019-05-12T21:03:46.332Z,81.77
2019-05-12T21:06:18.424Z,81.90
2019-05-12T21:08:53.859Z,81.81
2019-05-12T21:11:24.466Z,81.88
2019-05-12T21:14:00.942Z,81.78
2019-05-12T21:16:34.467Z,81.83
2019-05-12T21:19:10.604Z,81.99
2019-05-12T21:21:38.703Z,82.00
2019-05-12T21:24:10.760Z,81.93
2019-05-12T21:26:44.115Z,81.86
2019-05-12T21:29:18.992Z,81.63
2019-05-12T21:31:49.745Z,81.60
2019-05-12T21:34:23.364Z,81.52
2019-05-12T21:36:58.899Z,81.58
2019-05-12T21:39:29.809Z,81.42
2019-05-12T21:42:03.841Z,81.26
2019-05-12T21:44:35.543Z,80.94
2019-05-12T21:47:10.457Z,80.90
2019-05-12T21:49:42.715Z,81.20
2019-05-12T21:52:14.637Z,80.99
2019-05-12T21:54:46.280Z,81.16
2019-05-12T21:57:19.230Z,81.26
2019-05-12T21:59:53.166Z,81.01
2019-05-12T22:02:30.628Z,81.06
2019-05-12T22:04:59.358Z,81.13
2019-05-12T22:07:38.062Z,81.25
2019-05-12T22:10:06.793Z,81.07
2019-05-12T22:12:38.620Z,81.17
2019-05-12T22:15:19.596Z,81.12
2019-05-12T22:18:04.613Z,81.00
2019-05-12T22:20:36.502Z,80.92
2019-05-12T22:23:11.866Z,81.06
2019-05-12T22:25:43.544Z,81.13
2019-05-12T22:28:15.283Z,81.23
2019-05-12T22:30:47.260Z,81.39
2019-05-12T22:33:19.296Z,81.46
2019-05-12T22:36:02.965Z,81.41
2019-05-12T22:38:25.005Z,81.64
2019-05-12T22:40:59.624Z,81.65
2019-05-12T22:43:31.463Z,81.91
2019-05-12T22:46:05.768Z,81.86
2019-05-12T22:48:40.644Z,81.77
2019-05-12T22:51:23.120Z,81.92
2019-05-12T22:53:45.250Z,81.85
2019-05-12T22:56:18.181Z,81.97
2019-05-12T22:58:52.024Z,81.90
2019-05-12T23:01:23.592Z,81.83
2019-05-12T23:03:56.141Z,81.87
2019-05-12T23:06:33.528Z,81.95
2019-05-12T23:09:02.051Z,81.90
2019-05-12T23:11:37.903Z,81.89
2019-05-12T23:14:12.532Z,81.52
2019-05-12T23:16:44.277Z,81.40
2019-05-12T23:19:15.714Z,81.00
2019-05-12T23:21:49.289Z,80.93
2019-05-12T23:24:23.528Z,81.07
2019-05-12T23:26:54.918Z,81.13
2019-05-12T23:29:30.984Z,81.12
2019-05-12T23:32:05.919Z,81.16
2019-05-12T23:34:34.009Z,81.50
2019-05-12T23:37:07.252Z,81.83
2019-05-12T23:39:39.924Z,81.61
2019-05-12T23:42:13.656Z,81.19
2019-05-12T23:44:45.548Z,81.03
2019-05-12T23:47:17.481Z,80.88
2019-05-12T23:49:49.526Z,80.67
2019-05-12T23:52:21.533Z,80.64
2019-05-12T23:54:53.636Z,80.51
2019-05-12T23:57:25.919Z,80.41
2019-05-12T23:59:58.394Z,80.56
